createdAt,value
2018-02-14T00:00:40.201Z,7.53
2018-02-14T00:03:07.686Z,6.40
2018-02-14T00:05:35.939Z,4.60
2018-02-14T00:08:03.428Z,4.87
2018-02-14T00:10:30.895Z,9.47
2018-02-14T00:12:58.486Z,5.23
2018-02-14T00:15:26.770Z,6.00
2018-02-14T00:17:54.274Z,9.10
2018-02-14T00:20:21.753Z,6.00
2018-02-14T00:22:49.250Z,6.00
2018-02-14T00:25:16.763Z,6.60
2018-02-14T00:27:44.231Z,8.27
2018-02-14T00:30:11.724Z,8.23
2018-02-14T00:32:39.963Z,6.30
2018-02-14T00:35:07.468Z,7.23
2018-02-14T00:37:35.707Z,6.63
2018-02-14T00:40:03.191Z,7.70
2018-02-14T00:42:31.432Z,8.13
2018-02-14T00:44:58.898Z,7.37
2018-02-14T00:47:26.387Z,4.47
2018-02-14T00:49:54.623Z,6.10
2018-02-14T00:52:22.109Z,6.00
2018-02-14T00:54:49.596Z,9.67
2018-02-14T00:57:17.078Z,6.53
2018-02-14T00:59:44.545Z,7.03
2018-02-14T01:02:12.016Z,6.20
2018-02-14T01:04:39.498Z,10.07
2018-02-14T01:07:07.761Z,12.90
2018-02-14T01:09:35.994Z,12.20
2018-02-14T01:12:03.527Z,7.37
2018-02-14T01:14:30.988Z,6.13
2018-02-14T01:16:58.447Z,7.67
2018-02-14T01:19:25.934Z,9.37
2018-02-14T01:21:53.407Z,5.97
2018-02-14T01:24:20.898Z,6.60
2018-02-14T01:26:48.378Z,7.67
2018-02-14T01:29:15.865Z,9.10
2018-02-14T01:31:43.346Z,7.33
2018-02-14T01:34:11.598Z,6.77
2018-02-14T01:36:39.101Z,6.20
2018-02-14T01:39:06.583Z,13.60
2018-02-14T01:41:34.087Z,9.27
2018-02-14T01:44:02.318Z,9.43
2018-02-14T01:46:29.824Z,8.03
2018-02-14T01:48:58.054Z,9.10
2018-02-14T01:51:25.550Z,6.23
2018-02-14T01:53:53.788Z,5.47
2018-02-14T01:56:21.286Z,7.17
2018-02-14T01:58:48.793Z,13.73
2018-02-14T02:01:16.254Z,6.03
2018-02-14T02:03:43.744Z,7.73
2018-02-14T02:06:12.004Z,8.43
2018-02-14T02:08:39.507Z,7.67
2018-02-14T02:11:07.002Z,9.80
2018-02-14T02:13:34.508Z,7.63
2018-02-14T02:16:02.007Z,6.90
2018-02-14T02:18:29.511Z,11.03
2018-02-14T02:20:57.746Z,7.73
2018-02-14T02:23:26.016Z,7.80
2018-02-14T02:25:53.499Z,9.17
2018-02-14T02:28:21.003Z,8.70
2018-02-14T02:30:48.490Z,10.40
2018-02-14T02:33:16.018Z,10.03
2018-02-14T02:35:43.509Z,13.53
2018-02-14T02:38:11.008Z,8.87
2018-02-14T02:40:42.281Z,10.83
2018-02-14T02:43:09.770Z,11.50
2018-02-14T02:45:37.263Z,8.20
2018-02-14T02:48:04.744Z,8.27
2018-02-14T02:50:32.246Z,7.90
2018-02-14T02:52:59.721Z,9.90
2018-02-14T02:55:27.967Z,9.07
2018-02-14T02:57:55.624Z,8.60
2018-02-14T03:00:23.130Z,8.77
2018-02-14T03:02:50.619Z,11.57
2018-02-14T03:05:18.128Z,12.13
2018-02-14T03:07:46.372Z,13.70
2018-02-14T03:10:13.850Z,9.70
2018-02-14T03:12:42.094Z,8.43
2018-02-14T03:15:09.588Z,8.00
2018-02-14T03:17:43.804Z,8.57
2018-02-14T03:20:12.041Z,9.97
2018-02-14T03:22:39.530Z,7.20
2018-02-14T03:25:07.759Z,13.67
2018-02-14T03:27:35.241Z,11.47
2018-02-14T03:30:02.727Z,8.10
2018-02-14T03:32:30.217Z,9.73
2018-02-14T03:34:57.690Z,11.30
2018-02-14T03:37:25.166Z,10.13
2018-02-14T03:39:53.406Z,8.47
2018-02-14T03:42:20.879Z,8.23
2018-02-14T03:44:48.352Z,7.27
2018-02-14T03:47:15.842Z,13.67
2018-02-14T03:49:43.315Z,11.43
2018-02-14T03:52:10.798Z,10.53
2018-02-14T03:54:38.329Z,11.07
2018-02-14T03:57:05.808Z,10.00
2018-02-14T03:59:33.284Z,9.73
2018-02-14T04:02:00.771Z,7.53
2018-02-14T04:04:28.247Z,8.57
2018-02-14T04:06:55.705Z,11.50
2018-02-14T04:09:23.197Z,11.27
2018-02-14T04:11:51.447Z,7.90
2018-02-14T04:14:18.939Z,11.07
2018-02-14T04:16:46.406Z,7.37
2018-02-14T04:19:14.659Z,8.50
2018-02-14T04:21:42.137Z,10.13
2018-02-14T04:24:10.405Z,10.80
2018-02-14T04:26:37.855Z,9.10
2018-02-14T04:29:05.336Z,9.93
2018-02-14T04:31:33.589Z,11.93
2018-02-14T04:34:01.077Z,9.00
2018-02-14T04:36:28.578Z,9.17
2018-02-14T04:38:56.072Z,10.10
2018-02-14T04:41:24.311Z,10.70
2018-02-14T04:43:51.782Z,9.40
2018-02-14T04:46:19.239Z,8.23
2018-02-14T04:48:46.722Z,8.50
2018-02-14T04:51:14.945Z,7.27
2018-02-14T04:53:42.444Z,10.60
2018-02-14T04:56:10.678Z,8.63
2018-02-14T04:58:38.151Z,10.73
2018-02-14T05:01:05.638Z,9.30
2018-02-14T05:03:33.878Z,10.57
2018-02-14T05:06:01.354Z,7.53
2018-02-14T05:08:29.618Z,14.27
2018-02-14T05:10:57.883Z,11.30
2018-02-14T05:13:25.361Z,10.60
2018-02-14T05:15:53.639Z,16.90
2018-02-14T05:18:21.875Z,10.73
2018-02-14T05:20:49.350Z,10.37
2018-02-14T05:23:16.838Z,9.90
2018-02-14T05:25:44.310Z,9.50
2018-02-14T05:28:11.802Z,15.20
2018-02-14T05:30:39.277Z,11.50
2018-02-14T05:33:06.765Z,12.47
2018-02-14T05:35:34.247Z,10.77
2018-02-14T05:38:01.729Z,14.07
2018-02-14T05:40:29.236Z,13.80
2018-02-14T05:42:56.732Z,11.23
2018-02-14T05:45:24.209Z,10.27
2018-02-14T05:47:51.689Z,15.27
2018-02-14T05:50:19.942Z,13.40
2018-02-14T05:52:47.438Z,14.90
2018-02-14T05:55:14.912Z,10.53
2018-02-14T05:57:42.409Z,12.73
2018-02-14T06:00:09.888Z,14.87
2018-02-14T06:02:38.414Z,13.03
2018-02-14T06:05:06.897Z,16.17
2018-02-14T06:07:34.377Z,15.23
2018-02-14T06:10:01.875Z,13.17
2018-02-14T06:12:29.394Z,15.97
2018-02-14T06:14:56.911Z,12.77
2018-02-14T06:17:24.595Z,12.00
2018-02-14T06:19:53.134Z,13.17
2018-02-14T06:22:20.619Z,13.37
2018-02-14T06:24:48.099Z,16.57
2018-02-14T06:27:15.588Z,13.70
2018-02-14T06:29:43.851Z,14.47
2018-02-14T06:32:12.132Z,19.70
2018-02-14T06:34:40.599Z,18.17
2018-02-14T06:37:08.083Z,22.50
2018-02-14T06:39:35.565Z,18.07
2018-02-14T06:42:03.090Z,16.47
2018-02-14T06:44:31.351Z,19.23
2018-02-14T06:46:59.583Z,21.37
2018-02-14T06:49:27.053Z,21.33
2018-02-14T06:51:54.520Z,16.23
2018-02-14T06:54:22.018Z,15.73
2018-02-14T06:56:49.486Z,17.03
2018-02-14T06:59:16.991Z,16.47
2018-02-14T07:01:44.462Z,15.47
2018-02-14T07:04:12.698Z,17.40
2018-02-14T07:06:40.189Z,14.23
2018-02-14T07:09:08.426Z,19.97
2018-02-14T07:11:35.911Z,15.77
2018-02-14T07:14:03.607Z,13.33
2018-02-14T07:16:32.508Z,16.67
2018-02-14T07:19:00.028Z,18.17
2018-02-14T07:21:28.295Z,19.07
2018-02-14T07:23:55.768Z,17.47
2018-02-14T07:26:24.033Z,15.80
2018-02-14T07:28:52.315Z,14.33
2018-02-14T07:31:20.556Z,16.23
2018-02-14T07:33:48.038Z,22.60
2018-02-14T07:36:16.275Z,15.90
2018-02-14T07:38:43.764Z,14.30
2018-02-14T07:41:12.976Z,15.63
2018-02-14T07:43:41.229Z,12.57
2018-02-14T07:46:08.698Z,12.93
2018-02-14T07:48:36.962Z,14.27
2018-02-14T07:51:04.445Z,13.60
2018-02-14T07:53:31.931Z,16.73
2018-02-14T07:55:59.391Z,15.60
2018-02-14T07:58:26.888Z,15.20
2018-02-14T08:00:55.126Z,15.33
2018-02-14T08:03:24.476Z,15.00
2018-02-14T08:05:52.711Z,16.40
2018-02-14T08:08:20.203Z,16.67
2018-02-14T08:10:48.459Z,16.20
2018-02-14T08:13:15.969Z,14.77
2018-02-14T08:15:43.452Z,16.00
2018-02-14T08:18:10.925Z,16.43
2018-02-14T08:20:38.414Z,16.90
2018-02-14T08:23:06.648Z,14.67
2018-02-14T08:25:34.137Z,11.67
2018-02-14T08:28:02.394Z,11.37
2018-02-14T08:30:29.887Z,17.00
2018-02-14T08:32:57.354Z,13.60
2018-02-14T08:35:24.839Z,11.90
2018-02-14T08:37:52.312Z,12.00
2018-02-14T08:40:19.813Z,12.73
2018-02-14T08:42:47.291Z,12.50
2018-02-14T08:45:14.766Z,9.53
2018-02-14T08:47:43.741Z,12.07
2018-02-14T08:50:11.244Z,12.70
2018-02-14T08:52:39.488Z,14.40
2018-02-14T08:55:06.974Z,14.20
2018-02-14T08:57:35.223Z,14.40
2018-02-14T09:00:02.702Z,15.47
2018-02-14T09:02:31.784Z,15.23
2018-02-14T09:04:59.267Z,14.93
2018-02-14T09:07:27.513Z,15.80
2018-02-14T09:09:54.988Z,16.57
2018-02-14T09:12:23.271Z,17.17
2018-02-14T09:14:51.592Z,19.17
2018-02-14T09:17:19.549Z,11.97
2018-02-14T09:19:47.038Z,16.10
2018-02-14T09:22:14.527Z,14.60
2018-02-14T09:24:42.785Z,11.03
2018-02-14T09:27:10.264Z,10.07
2018-02-14T09:29:37.734Z,12.40
2018-02-14T09:32:05.214Z,12.40
2018-02-14T09:34:32.697Z,15.33
2018-02-14T09:37:00.206Z,11.03
2018-02-14T09:39:28.407Z,11.33
2018-02-14T09:41:55.862Z,10.53
2018-02-14T09:44:23.348Z,12.70
2018-02-14T09:46:51.701Z,11.73
2018-02-14T09:49:19.186Z,14.47
2018-02-14T09:51:47.435Z,20.30
2018-02-14T09:54:14.938Z,19.23
2018-02-14T09:56:42.487Z,12.57
2018-02-14T09:59:10.771Z,14.57
2018-02-14T10:01:38.237Z,17.00
2018-02-14T10:04:05.719Z,11.47
2018-02-14T10:06:33.220Z,11.27
2018-02-14T10:09:01.464Z,13.33
2018-02-14T10:11:29.126Z,14.23
2018-02-14T10:13:56.597Z,12.57
2018-02-14T10:16:24.097Z,10.47
2018-02-14T10:18:51.562Z,23.87
2018-02-14T10:21:19.049Z,13.23
2018-02-14T10:23:46.528Z,17.00
2018-02-14T10:26:14.033Z,10.97
2018-02-14T10:28:41.535Z,16.10
2018-02-14T10:31:09.022Z,16.67
2018-02-14T10:33:36.502Z,12.00
2018-02-14T10:36:04.002Z,13.73
2018-02-14T10:38:31.492Z,17.47
2018-02-14T10:40:58.971Z,9.90
2018-02-14T10:43:26.455Z,15.53
2018-02-14T10:45:53.931Z,11.90
2018-02-14T10:48:21.468Z,11.90
2018-02-14T10:50:49.000Z,12.10
2018-02-14T10:53:16.593Z,10.30
2018-02-14T10:55:44.100Z,8.27
2018-02-14T10:58:11.738Z,17.20
2018-02-14T11:00:45.566Z,11.83
2018-02-14T11:03:20.463Z,11.23
2018-02-14T11:05:53.649Z,9.63
2018-02-14T11:08:22.026Z,12.50
2018-02-14T11:10:51.041Z,10.50
2018-02-14T11:13:19.365Z,8.37
2018-02-14T11:15:46.867Z,8.47
2018-02-14T11:18:15.117Z,8.60
2018-02-14T11:20:42.626Z,12.97
2018-02-14T11:23:10.099Z,12.53
2018-02-14T11:25:37.641Z,9.67
2018-02-14T11:28:05.111Z,8.97
2018-02-14T11:30:32.617Z,8.83
2018-02-14T11:33:00.861Z,8.03
2018-02-14T11:35:28.336Z,10.20
2018-02-14T11:37:56.570Z,7.40
2018-02-14T11:40:24.043Z,10.73
2018-02-14T11:42:51.537Z,11.93
2018-02-14T11:45:19.784Z,9.23
2018-02-14T11:47:47.273Z,7.67
2018-02-14T11:50:14.768Z,6.80
2018-02-14T11:52:42.236Z,12.90
2018-02-14T11:55:09.711Z,7.93
2018-02-14T11:57:37.182Z,6.50
2018-02-14T12:00:05.481Z,6.83
2018-02-14T12:02:32.986Z,11.27
2018-02-14T12:05:00.473Z,8.10
2018-02-14T12:07:28.728Z,7.70
2018-02-14T12:09:56.969Z,8.73
2018-02-14T12:12:24.443Z,7.10
2018-02-14T12:14:51.914Z,8.30
2018-02-14T12:17:19.935Z,6.47
2018-02-14T12:19:47.408Z,7.03
2018-02-14T12:22:14.892Z,7.27
2018-02-14T12:24:42.367Z,7.17
2018-02-14T12:27:10.662Z,8.23
2018-02-14T12:29:38.174Z,6.30
2018-02-14T12:32:05.636Z,8.20
2018-02-14T12:34:33.123Z,6.80
2018-02-14T12:37:01.370Z,8.67
2018-02-14T12:39:28.888Z,7.30
2018-02-14T12:41:56.362Z,6.37
2018-02-14T12:44:33.464Z,8.20
2018-02-14T12:47:00.938Z,6.47
2018-02-14T12:49:29.186Z,6.50
2018-02-14T12:51:56.653Z,8.13
2018-02-14T12:54:24.145Z,5.90
2018-02-14T12:56:51.625Z,7.03
2018-02-14T12:59:19.162Z,6.43
2018-02-14T13:01:46.631Z,7.03
2018-02-14T13:04:14.125Z,7.23
2018-02-14T13:09:34.867Z,8.10
2018-02-14T13:12:03.117Z,6.57
2018-02-14T13:14:30.687Z,7.77
2018-02-14T13:16:58.168Z,5.80
2018-02-14T13:19:26.414Z,8.93
2018-02-14T13:21:53.901Z,4.77
2018-02-14T13:24:22.178Z,5.67
2018-02-14T13:26:49.660Z,6.90
2018-02-14T13:29:17.156Z,5.67
2018-02-14T13:31:44.635Z,8.60
2018-02-14T13:34:12.863Z,7.50
2018-02-14T13:36:40.357Z,6.33
2018-02-14T13:39:08.608Z,6.97
2018-02-14T13:41:36.337Z,7.53
2018-02-14T13:44:03.850Z,4.87
2018-02-14T13:46:32.123Z,5.87
2018-02-14T13:49:00.352Z,8.87
2018-02-14T13:51:27.828Z,8.60
2018-02-14T13:53:55.341Z,8.23
2018-02-14T13:56:22.835Z,7.47
2018-02-14T13:58:50.296Z,7.77
2018-02-14T14:01:17.809Z,10.80
2018-02-14T14:03:45.284Z,7.50
2018-02-14T14:06:12.773Z,8.83
2018-02-14T14:08:40.244Z,7.67
2018-02-14T14:11:08.490Z,7.03
2018-02-14T14:13:35.998Z,9.00
2018-02-14T14:16:03.490Z,7.37
2018-02-14T14:18:30.958Z,8.70
2018-02-14T14:20:58.431Z,6.53
2018-02-14T14:23:25.893Z,9.07
2018-02-14T14:25:53.426Z,7.80
2018-02-14T14:28:20.888Z,7.83
2018-02-14T14:30:48.347Z,6.20
2018-02-14T14:33:15.880Z,8.17
2018-02-14T14:35:43.362Z,10.77
2018-02-14T14:38:11.656Z,9.10
2018-02-14T14:40:39.882Z,5.20
2018-02-14T14:43:07.362Z,8.50
2018-02-14T14:45:34.872Z,9.33
2018-02-14T14:48:02.353Z,9.63
2018-02-14T14:50:29.861Z,7.10
2018-02-14T14:52:58.186Z,6.40
2018-02-14T14:55:25.682Z,8.60
2018-02-14T14:57:53.169Z,8.83
2018-02-14T15:00:20.711Z,6.97
2018-02-14T15:02:48.949Z,9.50
2018-02-14T15:05:16.470Z,6.03
2018-02-14T15:07:43.965Z,6.30
2018-02-14T15:10:11.452Z,7.03
2018-02-14T15:12:39.683Z,5.90
2018-02-14T15:15:07.174Z,5.27
2018-02-14T15:17:34.659Z,9.80
2018-02-14T15:20:02.158Z,7.33
2018-02-14T15:22:29.655Z,7.50
2018-02-14T15:24:57.920Z,6.00
2018-02-14T15:27:26.158Z,5.37
2018-02-14T15:29:53.697Z,4.63
2018-02-14T15:32:21.225Z,6.10
2018-02-14T15:34:49.472Z,6.17
2018-02-14T15:37:16.959Z,6.37
2018-02-14T15:39:44.901Z,6.40
2018-02-14T15:42:12.391Z,4.70
2018-02-14T15:44:41.747Z,6.17
2018-02-14T15:47:09.216Z,5.60
2018-02-14T15:49:38.489Z,7.00
2018-02-14T15:52:05.986Z,5.20
2018-02-14T15:54:34.287Z,6.17
2018-02-14T15:57:01.784Z,7.57
2018-02-14T15:59:29.276Z,6.13
2018-02-14T16:01:56.800Z,7.27
2018-02-14T16:04:24.266Z,3.67
2018-02-14T16:06:51.734Z,5.47
2018-02-14T16:09:19.986Z,4.10
2018-02-14T16:11:47.504Z,6.23
2018-02-14T16:14:14.991Z,7.93
2018-02-14T16:16:42.474Z,6.70
2018-02-14T16:19:10.807Z,5.43
2018-02-14T16:21:38.315Z,6.83
2018-02-14T16:24:06.583Z,5.57
2018-02-14T16:26:34.819Z,8.00
2018-02-14T16:29:02.345Z,6.57
2018-02-14T16:31:29.803Z,7.03
2018-02-14T16:33:57.296Z,7.63
2018-02-14T16:36:24.755Z,6.00
2018-02-14T16:38:52.330Z,5.57
2018-02-14T16:41:19.840Z,8.30
2018-02-14T16:43:47.322Z,5.77
2018-02-14T16:46:14.810Z,5.97
2018-02-14T16:48:45.208Z,12.40
2018-02-14T16:51:12.695Z,7.70
2018-02-14T16:53:40.980Z,5.93
2018-02-14T16:56:09.973Z,5.40
2018-02-14T16:58:37.461Z,8.20
2018-02-14T17:01:04.951Z,5.87
2018-02-14T17:03:32.465Z,6.57
2018-02-14T17:05:59.964Z,8.43
2018-02-14T17:08:27.440Z,5.97
2018-02-14T17:10:55.015Z,5.50
2018-02-14T17:13:22.511Z,8.47
2018-02-14T17:15:49.996Z,6.83
2018-02-14T17:18:17.497Z,7.17
2018-02-14T17:20:44.978Z,6.47
2018-02-14T17:23:12.466Z,6.30
2018-02-14T17:25:40.737Z,7.53
2018-02-14T17:28:08.237Z,8.00
2018-02-14T17:30:35.732Z,10.70
2018-02-14T17:33:03.226Z,7.67
2018-02-14T17:35:31.489Z,10.70
2018-02-14T17:37:59.726Z,14.83
2018-02-14T17:40:27.211Z,9.53
2018-02-14T17:42:54.685Z,8.03
2018-02-14T17:45:22.176Z,10.63
2018-02-14T17:47:49.991Z,9.93
2018-02-14T17:50:17.469Z,5.80
2018-02-14T17:52:45.710Z,11.13
2018-02-14T17:55:13.206Z,6.33
2018-02-14T17:57:40.659Z,7.60
2018-02-14T18:00:08.192Z,6.70
2018-02-14T18:02:35.666Z,7.47
2018-02-14T18:05:03.919Z,11.07
2018-02-14T18:07:31.386Z,7.37
2018-02-14T18:09:59.668Z,5.90
2018-02-14T18:12:27.928Z,7.33
2018-02-14T18:14:55.407Z,6.73
2018-02-14T18:17:22.890Z,9.13
2018-02-14T18:19:50.378Z,7.00
2018-02-14T18:22:17.869Z,8.67
2018-02-14T18:24:46.226Z,7.07
2018-02-14T18:27:13.707Z,9.60
2018-02-14T18:29:42.002Z,12.23
2018-02-14T18:32:09.471Z,6.70
2018-02-14T18:34:36.962Z,10.03
2018-02-14T18:37:04.455Z,8.43
2018-02-14T18:39:32.182Z,8.43
2018-02-14T18:42:00.110Z,14.50
2018-02-14T18:44:27.584Z,8.13
2018-02-14T18:46:55.089Z,7.10
2018-02-14T18:49:23.426Z,7.97
2018-02-14T18:51:50.942Z,10.37
2018-02-14T18:54:18.445Z,5.70
2018-02-14T18:56:46.349Z,11.97
2018-02-14T18:59:13.840Z,7.63
2018-02-14T19:01:41.482Z,9.00
2018-02-14T19:04:08.989Z,11.57
2018-02-14T19:06:36.498Z,9.10
2018-02-14T19:09:05.580Z,9.77
2018-02-14T19:11:33.312Z,10.60
2018-02-14T19:14:01.453Z,7.40
2018-02-14T19:16:30.747Z,8.40
2018-02-14T19:18:59.351Z,13.23
2018-02-14T19:21:26.892Z,8.30
2018-02-14T19:23:54.411Z,10.87
2018-02-14T19:26:21.915Z,14.10
2018-02-14T19:28:49.415Z,9.80
2018-02-14T19:31:16.962Z,12.23
2018-02-14T19:33:45.498Z,12.50
2018-02-14T19:36:13.042Z,9.47
2018-02-14T19:38:41.615Z,12.97
2018-02-14T19:41:09.128Z,10.60
2018-02-14T19:43:37.409Z,15.00
2018-02-14T19:46:05.719Z,14.40
2018-02-14T19:48:33.255Z,15.37
2018-02-14T19:51:03.472Z,10.47
2018-02-14T19:53:31.528Z,15.33
2018-02-14T19:55:59.221Z,12.57
2018-02-14T19:58:26.750Z,9.83
2018-02-14T20:00:55.967Z,7.90
2018-02-14T20:03:23.616Z,12.77
2018-02-14T20:05:51.907Z,13.73
2018-02-14T20:08:19.385Z,13.23
2018-02-14T20:10:46.891Z,12.10
2018-02-14T20:13:15.233Z,12.90
2018-02-14T20:15:42.872Z,15.17
2018-02-14T20:18:10.370Z,13.00
2018-02-14T20:20:37.903Z,11.43
2018-02-14T20:23:05.383Z,9.33
2018-02-14T20:25:34.716Z,12.00
2018-02-14T20:28:03.163Z,10.47
2018-02-14T20:30:30.790Z,11.57
2018-02-14T20:32:58.302Z,12.43
2018-02-14T20:35:26.559Z,14.63
2018-02-14T20:37:54.890Z,11.83
2018-02-14T20:40:22.410Z,13.07
2018-02-14T20:42:52.677Z,10.83
2018-02-14T20:45:20.172Z,15.43
2018-02-14T20:47:47.680Z,10.33
2018-02-14T20:50:15.144Z,9.43
2018-02-14T20:52:42.709Z,13.80
2018-02-14T20:55:10.181Z,13.20
2018-02-14T20:57:37.667Z,14.60
2018-02-14T21:00:05.924Z,9.83
2018-02-14T21:02:33.402Z,12.93
2018-02-14T21:05:00.892Z,12.17
2018-02-14T21:07:28.380Z,12.40
2018-02-14T21:09:55.879Z,11.43
2018-02-14T21:12:23.359Z,13.40
2018-02-14T21:14:50.841Z,14.70
2018-02-14T21:17:18.540Z,8.70
2018-02-14T21:19:46.799Z,12.50
2018-02-14T21:22:14.277Z,12.90
2018-02-14T21:24:42.546Z,14.20
2018-02-14T21:27:10.836Z,11.20
2018-02-14T21:29:38.328Z,17.53
2018-02-14T21:32:05.795Z,12.43
2018-02-14T21:34:33.279Z,11.70
2018-02-14T21:37:01.516Z,9.80
2018-02-14T21:39:28.998Z,12.50
2018-02-14T21:41:56.521Z,17.17
2018-02-14T21:44:23.982Z,15.83
2018-02-14T21:46:51.503Z,15.67
2018-02-14T21:49:19.754Z,13.33
2018-02-14T21:51:48.003Z,13.07
2018-02-14T21:54:15.499Z,15.07
2018-02-14T21:56:42.970Z,16.10
2018-02-14T21:59:10.441Z,13.43
2018-02-14T22:01:37.929Z,13.70
2018-02-14T22:04:05.402Z,16.77
2018-02-14T22:06:32.888Z,12.47
2018-02-14T22:09:00.365Z,11.50
2018-02-14T22:11:27.867Z,15.20
2018-02-14T22:13:55.349Z,13.53
2018-02-14T22:16:23.694Z,15.67
2018-02-14T22:18:51.202Z,15.13
2018-02-14T22:21:18.689Z,14.23
2018-02-14T22:23:46.146Z,12.73
2018-02-14T22:26:13.640Z,16.50
2018-02-14T22:28:41.873Z,13.90
2018-02-14T22:31:09.375Z,15.63
2018-02-14T22:33:37.645Z,17.87
2018-02-14T22:36:05.902Z,15.87
2018-02-14T22:38:33.382Z,13.73
2018-02-14T22:41:01.622Z,14.23
2018-02-14T22:43:29.110Z,15.40
2018-02-14T22:45:57.378Z,15.77
2018-02-14T22:48:25.639Z,17.00
2018-02-14T22:50:53.129Z,20.37
2018-02-14T22:53:20.654Z,14.43
2018-02-14T22:55:48.158Z,18.07
2018-02-14T22:58:15.656Z,15.67
2018-02-14T23:00:43.148Z,18.53
2018-02-14T23:03:11.394Z,18.43
2018-02-14T23:05:40.295Z,18.77
2018-02-14T23:08:08.550Z,14.53
2018-02-14T23:10:36.033Z,18.23
2018-02-14T23:13:04.302Z,18.60
2018-02-14T23:15:32.597Z,19.17
2018-02-14T23:18:00.078Z,15.47
2018-02-14T23:20:27.557Z,15.07
2018-02-14T23:22:55.032Z,16.23
2018-02-14T23:25:22.535Z,16.43
2018-02-14T23:27:50.076Z,19.80
2018-02-14T23:30:17.553Z,13.87
2018-02-14T23:32:45.043Z,15.30
2018-02-14T23:35:12.523Z,17.00
2018-02-14T23:37:39.997Z,14.97
2018-02-14T23:40:07.499Z,18.70
2018-02-14T23:42:35.739Z,16.77
2018-02-14T23:45:03.211Z,15.00
2018-02-14T23:47:30.674Z,13.97
2018-02-14T23:49:58.171Z,16.60
2018-02-14T23:52:25.672Z,20.70
2018-02-14T23:54:53.145Z,14.87
2018-02-14T23:57:20.635Z,16.50
2018-02-14T23:59:48.135Z,13.27
